Time;durP1;ratioP1;P1;durP2;ratioP2;P2;SDS_P1;SDS_P2;PMS_P1;PMS_P2;Temp;Humidity;BMP_temperature;BMP_pressure;BME280_temperature;BME280_humidity;BME280_pressure;Samples;Min_cycle;Max_cycle;Signal;HPM_P1;HPM_P2
2020/12/18 00:00:08;;;;;;;11.05;4.90;;;6.80;91.80;;;;;;5060082;28;20395;-80
2020/12/18 00:02:34;;;;;;;9.63;5.28;;;6.80;91.80;;;;;;5095125;28;20020;-88
2020/12/18 00:05:00;;;;;;;12.70;5.68;;;6.80;91.80;;;;;;5050017;28;20029;-88
2020/12/18 00:07:26;;;;;;;9.02;4.85;;;6.70;91.80;;;;;;5075701;28;20025;-88
2020/12/18 00:09:52;;;;;;;8.82;4.90;;;6.70;91.80;;;;;;5078515;28;20146;-88
2020/12/18 00:12:18;;;;;;;12.73;5.57;;;6.70;91.80;;;;;;5074365;28;20032;-88
2020/12/18 00:14:44;;;;;;;12.82;5.18;;;6.70;91.80;;;;;;5069208;28;20024;-87
2020/12/18 00:17:09;;;;;;;8.90;5.03;;;6.70;91.80;;;;;;5059363;28;20481;-88
2020/12/18 00:19:35;;;;;;;14.55;5.20;;;6.70;91.80;;;;;;5050557;28;20032;-87
2020/12/18 00:22:01;;;;;;;7.38;4.35;;;6.60;91.80;;;;;;5054882;28;20021;-89
2020/12/18 00:24:26;;;;;;;10.73;4.95;;;6.60;91.80;;;;;;5075131;28;20090;-87
2020/12/18 00:26:52;;;;;;;10.07;4.90;;;6.60;91.90;;;;;;5077279;28;20042;-88
2020/12/18 00:29:18;;;;;;;7.93;4.22;;;6.60;91.80;;;;;;5060951;28;20066;-88
2020/12/18 00:31:43;;;;;;;7.03;3.92;;;6.60;91.90;;;;;;5060688;28;20028;-88
2020/12/18 00:34:09;;;;;;;9.02;4.68;;;6.60;91.90;;;;;;5060423;28;20063;-88
2020/12/18 00:36:35;;;;;;;11.40;4.95;;;6.60;91.90;;;;;;5077026;28;20118;-88
2020/12/18 00:39:02;;;;;;;12.70;4.55;;;6.50;91.90;;;;;;5060617;28;20730;-88
2020/12/18 00:41:28;;;;;;;14.25;5.03;;;6.60;92.00;;;;;;5095269;28;20024;-88
2020/12/18 00:43:54;;;;;;;11.02;4.95;;;6.60;92.00;;;;;;5060604;28;20035;-88
2020/12/18 00:46:19;;;;;;;9.23;4.45;;;6.60;92.00;;;;;;5095040;28;20107;-88
2020/12/18 00:48:45;;;;;;;9.63;5.47;;;6.60;92.00;;;;;;5095071;28;20457;-88
2020/12/18 00:51:17;;;;;;;12.07;4.53;;;6.60;92.00;;;;;;5076110;28;20043;-77
2020/12/18 00:53:43;;;;;;;9.73;3.88;;;6.60;92.00;;;;;;5073868;28;20031;-77
2020/12/18 00:56:09;;;;;;;8.65;4.50;;;6.60;92.00;;;;;;5075714;28;20390;-77
2020/12/18 00:58:35;;;;;;;11.88;4.50;;;6.60;92.30;;;;;;5094015;28;20130;-77
2020/12/18 01:01:02;;;;;;;9.18;4.15;;;6.60;92.30;;;;;;5075770;28;20024;-80
2020/12/18 01:03:28;;;;;;;11.35;4.55;;;6.70;92.10;;;;;;5105557;28;20386;-80
2020/12/18 01:05:53;;;;;;;8.27;3.83;;;6.70;92.10;;;;;;5114192;28;20028;-80
2020/12/18 01:08:19;;;;;;;11.15;4.50;;;6.70;92.00;;;;;;5108519;28;20123;-80
2020/12/18 01:10:45;;;;;;;8.82;3.90;;;6.70;92.10;;;;;;5058837;28;20036;-80
2020/12/18 01:13:10;;;;;;;8.05;3.92;;;6.70;92.10;;;;;;5093414;28;20032;-76
2020/12/18 01:15:36;;;;;;;9.25;3.65;;;6.70;92.10;;;;;;5075720;28;20024;-76
2020/12/18 01:18:01;;;;;;;11.23;4.07;;;6.70;92.40;;;;;;5042391;28;20056;-77
2020/12/18 01:20:27;;;;;;;10.75;4.35;;;6.70;92.10;;;;;;5058756;28;20024;-77
2020/12/18 01:22:53;;;;;;;9.20;4.00;;;6.70;92.10;;;;;;5074979;28;20030;-76
2020/12/18 01:25:18;;;;;;;10.65;4.18;;;6.70;92.10;;;;;;5077230;28;20036;-76
2020/12/18 01:27:45;;;;;;;8.45;3.72;;;6.80;92.20;;;;;;5075414;28;20417;-76
2020/12/18 01:30:11;;;;;;;17.25;4.20;;;6.80;92.20;;;;;;5074962;28;20448;-77
2020/12/18 01:32:36;;;;;;;7.53;3.75;;;6.80;92.20;;;;;;5084365;28;20071;-76
2020/12/18 01:35:03;;;;;;;7.72;3.88;;;6.80;92.20;;;;;;5086451;28;20035;-80
2020/12/18 01:37:28;;;;;;;7.93;3.95;;;6.80;92.20;;;;;;5092746;28;20036;-80
2020/12/18 01:39:54;;;;;;;12.05;3.80;;;6.80;92.20;;;;;;5093186;28;20161;-74
2020/12/18 01:42:20;;;;;;;7.95;3.70;;;6.80;92.20;;;;;;5058031;28;20024;-75
2020/12/18 01:44:46;;;;;;;8.95;3.63;;;6.80;92.20;;;;;;5058239;28;20039;-75
2020/12/18 01:47:29;;;;;;;7.45;3.30;;;6.80;92.20;;;;;;5090307;28;20029;-75
2020/12/18 01:49:55;;;;;;;8.05;3.63;;;6.80;92.60;;;;;;5075552;28;20523;-77
2020/12/18 01:52:24;;;;;;;11.20;4.03;;;6.70;92.20;;;;;;5074967;28;20484;-77
2020/12/18 01:54:55;;;;;;;6.90;3.15;;;6.80;92.30;;;;;;5075310;28;20069;-77
2020/12/18 01:57:22;;;;;;;7.28;3.08;;;6.80;92.30;;;;;;5074349;28;20044;-77
2020/12/18 01:59:48;;;;;;;7.10;3.50;;;6.80;92.30;;;;;;5092808;28;20085;-77
2020/12/18 02:02:17;;;;;;;15.18;3.25;;;6.80;92.30;;;;;;5075135;28;20491;-77
2020/12/18 02:04:44;;;;;;;9.20;3.38;;;6.80;92.50;;;;;;5055433;28;20123;-77
2020/12/18 02:07:12;;;;;;;7.32;2.90;;;6.80;92.20;;;;;;5076620;28;20029;-77
2020/12/18 02:09:38;;;;;;;10.38;2.70;;;6.70;92.20;;;;;;5093095;28;20050;-77
2020/12/18 02:12:04;;;;;;;5.88;2.95;;;6.80;92.30;;;;;;5074835;28;20118;-77
2020/12/18 02:14:29;;;;;;;10.98;3.22;;;6.80;92.30;;;;;;5090567;28;20400;-77
2020/12/18 02:16:55;;;;;;;5.93;2.65;;;6.80;92.30;;;;;;5058000;28;20069;-76
2020/12/18 02:19:26;;;;;;;12.40;2.92;;;6.80;92.30;;;;;;5093138;28;20020;-77
2020/12/18 02:21:52;;;;;;;8.10;2.42;;;6.70;92.60;;;;;;5092825;28;20112;-76
2020/12/18 02:24:27;;;;;;;4.55;2.58;;;6.70;92.30;;;;;;5106403;28;20055;-77
2020/12/18 02:26:57;;;;;;;3.88;2.45;;;6.70;92.40;;;;;;5090039;28;20484;-76
2020/12/18 02:29:22;;;;;;;9.85;3.22;;;6.70;92.40;;;;;;5074872;28;20062;-77
2020/12/18 02:31:51;;;;;;;7.70;2.80;;;6.70;92.30;;;;;;5057928;28;20082;-77
2020/12/18 02:34:24;;;;;;;7.45;2.97;;;6.70;92.30;;;;;;5074719;28;20036;-77
2020/12/18 02:36:49;;;;;;;10.02;3.28;;;6.70;92.40;;;;;;5075218;28;20077;-89
2020/12/18 02:39:15;;;;;;;10.05;3.20;;;6.70;92.40;;;;;;5076007;28;20380;-89
2020/12/18 02:41:41;;;;;;;12.18;2.70;;;6.70;92.40;;;;;;5093291;28;20028;-89
2020/12/18 02:44:06;;;;;;;7.25;2.50;;;6.80;92.40;;;;;;5075579;28;20036;-87
2020/12/18 02:46:32;;;;;;;9.07;2.97;;;6.80;92.40;;;;;;5075673;28;20061;-88
2020/12/18 02:48:57;;;;;;;6.28;2.40;;;6.80;92.40;;;;;;5056863;28;20059;-89
2020/12/18 02:51:23;;;;;;;10.65;2.90;;;6.80;92.40;;;;;;5092572;28;20154;-89
2020/12/18 02:53:49;;;;;;;9.75;2.80;;;6.80;92.40;;;;;;5081612;28;20047;-88
2020/12/18 02:56:26;;;;;;;5.38;2.75;;;6.80;92.40;;;;;;5047473;28;20382;-88
2020/12/18 02:58:52;;;;;;;7.47;2.30;;;6.80;92.40;;;;;;5075474;28;20031;-88
2020/12/18 03:01:18;;;;;;;7.38;2.67;;;6.80;92.40;;;;;;5058999;28;20544;-88
2020/12/18 03:03:44;;;;;;;9.63;3.17;;;6.80;92.40;;;;;;5075358;28;20087;-88
2020/12/18 03:06:10;;;;;;;7.38;2.60;;;6.70;92.40;;;;;;5075527;28;20028;-89
2020/12/18 03:08:36;;;;;;;9.23;2.67;;;6.80;92.40;;;;;;5058340;28;20056;-89
2020/12/18 03:11:02;;;;;;;6.38;2.47;;;6.80;92.40;;;;;;5058029;28;20032;-88
2020/12/18 03:13:27;;;;;;;7.13;2.63;;;6.80;92.40;;;;;;5075673;28;20052;-88
2020/12/18 03:15:53;;;;;;;8.13;2.35;;;6.80;92.40;;;;;;5075987;28;20052;-88
2020/12/18 03:18:19;;;;;;;8.13;3.13;;;6.70;92.40;;;;;;5058409;28;20035;-89
2020/12/18 03:20:44;;;;;;;8.70;3.08;;;6.70;92.40;;;;;;5076077;28;20096;-88
2020/12/18 03:23:10;;;;;;;9.85;2.75;;;6.70;92.40;;;;;;5058400;28;20031;-89
2020/12/18 03:25:35;;;;;;;8.68;2.70;;;6.70;92.50;;;;;;5042640;28;20043;-88
2020/12/18 03:28:02;;;;;;;8.48;2.83;;;6.60;92.40;;;;;;5058531;28;20044;-88
2020/12/18 03:30:27;;;;;;;8.48;2.42;;;6.60;92.40;;;;;;5075924;28;20032;-88
2020/12/18 03:32:53;;;;;;;9.90;2.80;;;6.60;92.40;;;;;;5058206;28;20512;-88
2020/12/18 03:35:20;;;;;;;5.50;2.30;;;6.60;92.50;;;;;;5074831;28;20040;-89
2020/12/18 03:37:45;;;;;;;7.63;2.45;;;6.50;92.40;;;;;;5057986;28;20013;-88
2020/12/18 03:40:11;;;;;;;9.23;2.60;;;6.60;92.50;;;;;;5074098;28;20392;-81
2020/12/18 03:42:36;;;;;;;5.63;2.53;;;6.50;92.50;;;;;;5074790;28;20028;-79
2020/12/18 03:45:03;;;;;;;7.40;2.58;;;6.50;92.50;;;;;;5075120;28;20104;-81
2020/12/18 03:47:28;;;;;;;6.30;2.13;;;6.50;92.50;;;;;;5057234;28;20025;-80
2020/12/18 03:49:54;;;;;;;9.90;2.90;;;6.50;92.50;;;;;;5040313;28;20559;-80
2020/12/18 03:52:20;;;;;;;9.68;2.55;;;6.50;92.50;;;;;;5040275;28;20035;-80
2020/12/18 03:54:45;;;;;;;4.80;2.22;;;6.40;92.50;;;;;;5057119;28;20029;-80
2020/12/18 03:57:11;;;;;;;5.55;2.00;;;6.40;92.50;;;;;;5056715;28;20072;-80
2020/12/18 03:59:36;;;;;;;10.60;2.28;;;6.40;92.50;;;;;;5056722;28;20496;-81
2020/12/18 04:02:02;;;;;;;6.63;2.30;;;6.40;92.50;;;;;;5056799;28;20441;-80
2020/12/18 04:04:28;;;;;;;6.20;2.35;;;6.40;92.50;;;;;;5040169;28;20083;-80
2020/12/18 04:06:53;;;;;;;6.40;1.95;;;6.30;92.50;;;;;;5056908;28;20040;-81
2020/12/18 04:09:22;;;;;;;7.70;2.30;;;6.30;92.50;;;;;;5040213;28;20040;-80
2020/12/18 04:11:48;;;;;;;6.13;2.30;;;6.30;92.50;;;;;;5057277;28;20060;-81
2020/12/18 04:14:13;;;;;;;6.35;2.30;;;6.30;92.50;;;;;;5056307;28;20064;-81
2020/12/18 04:16:39;;;;;;;8.30;2.83;;;6.20;92.50;;;;;;5056198;28;20024;-80
2020/12/18 04:19:05;;;;;;;5.15;2.40;;;6.20;92.50;;;;;;5039817;28;20033;-80
2020/12/18 04:21:31;;;;;;;5.35;2.15;;;6.20;92.50;;;;;;5074206;28;20059;-75
2020/12/18 04:23:56;;;;;;;5.50;2.33;;;6.20;92.60;;;;;;5072550;28;20037;-77
2020/12/18 04:26:22;;;;;;;7.00;2.50;;;6.20;92.60;;;;;;5073065;28;20476;-77
2020/12/18 04:28:48;;;;;;;5.97;2.45;;;6.10;92.60;;;;;;5072515;28;20036;-77
2020/12/18 04:31:13;;;;;;;8.23;2.42;;;6.10;92.50;;;;;;5072892;28;20028;-76
2020/12/18 04:33:39;;;;;;;6.00;1.98;;;6.10;92.60;;;;;;5074100;28;20032;-77
2020/12/18 04:36:05;;;;;;;5.53;2.65;;;6.00;92.50;;;;;;5056254;28;20027;-76
2020/12/18 04:38:31;;;;;;;8.48;2.47;;;6.00;92.50;;;;;;5071943;28;20032;-80
2020/12/18 04:40:56;;;;;;;5.05;2.67;;;6.00;92.60;;;;;;5072711;28;20028;-80
2020/12/18 04:43:22;;;;;;;8.75;2.97;;;5.90;92.60;;;;;;5056074;28;20033;-80
2020/12/18 04:45:48;;;;;;;7.63;2.92;;;6.00;92.60;;;;;;5072963;28;20058;-80
2020/12/18 04:48:16;;;;;;;8.13;2.58;;;6.00;92.90;;;;;;5072540;28;20032;-80
2020/12/18 04:50:44;;;;;;;5.97;2.60;;;6.00;92.60;;;;;;5074691;28;20067;-87
2020/12/18 04:53:12;;;;;;;9.10;3.20;;;6.00;92.90;;;;;;5074282;28;20496;-88
2020/12/18 04:55:45;;;;;;;11.15;2.70;;;5.90;92.60;;;;;;5074655;28;20056;-90
2020/12/18 04:58:15;;;;;;;8.82;3.08;;;5.90;92.60;;;;;;5076446;28;20118;-77
2020/12/18 05:00:43;;;;;;;8.52;2.63;;;5.90;92.60;;;;;;5076405;28;20024;-76
2020/12/18 05:03:10;;;;;;;12.85;3.60;;;5.90;92.60;;;;;;5075495;28;20127;-77
2020/12/18 05:05:35;;;;;;;13.40;3.17;;;5.90;92.60;;;;;;5058903;28;20059;-77
2020/12/18 05:08:01;;;;;;;9.55;3.10;;;5.90;92.60;;;;;;5075385;28;20067;-77
2020/12/18 05:10:26;;;;;;;11.10;2.78;;;5.90;92.60;;;;;;5058939;28;20043;-77
2020/12/18 05:12:52;;;;;;;8.65;2.50;;;6.00;92.70;;;;;;5075175;28;20384;-77
2020/12/18 05:15:18;;;;;;;14.18;2.90;;;5.90;92.60;;;;;;5075321;28;20024;-77
2020/12/18 05:17:44;;;;;;;5.55;2.70;;;6.00;92.60;;;;;;5075530;28;20024;-77
2020/12/18 05:20:10;;;;;;;9.13;2.70;;;6.00;92.60;;;;;;5075657;28;20028;-76
2020/12/18 05:22:37;;;;;;;9.32;2.95;;;5.90;92.60;;;;;;5093466;28;20031;-76
2020/12/18 05:25:03;;;;;;;10.15;3.10;;;6.00;92.60;;;;;;5058757;28;20119;-76
2020/12/18 05:27:30;;;;;;;14.15;3.00;;;6.00;92.60;;;;;;5058455;28;20575;-76
2020/12/18 05:30:04;;;;;;;14.60;3.05;;;6.00;92.60;;;;;;5059013;28;20036;-77
2020/12/18 05:32:33;;;;;;;4.30;2.30;;;6.00;92.70;;;;;;5074925;28;20024;-77
2020/12/18 05:34:59;;;;;;;11.77;2.70;;;6.00;92.70;;;;;;5075175;28;20388;-77
2020/12/18 05:37:34;;;;;;;11.45;3.13;;;5.90;92.70;;;;;;5074994;28;20032;-76
2020/12/18 05:40:00;;;;;;;5.78;2.53;;;6.00;92.70;;;;;;5093284;28;20027;-77
2020/12/18 05:42:26;;;;;;;8.65;3.15;;;6.00;92.70;;;;;;5058100;28;20028;-76
2020/12/18 05:44:51;;;;;;;11.35;2.88;;;6.00;92.70;;;;;;5075409;28;20073;-77
2020/12/18 05:47:17;;;;;;;8.23;2.95;;;6.00;92.70;;;;;;5058361;28;20024;-77
2020/12/18 05:49:42;;;;;;;8.05;3.30;;;6.00;92.70;;;;;;5092867;28;20032;-76
2020/12/18 05:52:17;;;;;;;7.72;2.88;;;6.00;92.70;;;;;;5054912;28;20502;-76
2020/12/18 05:54:43;;;;;;;8.25;3.42;;;6.00;92.70;;;;;;5073093;28;20066;-77
2020/12/18 05:57:11;;;;;;;5.65;2.72;;;6.00;92.70;;;;;;5056233;28;20489;-77
2020/12/18 05:59:48;;;;;;;8.68;3.17;;;5.90;92.70;;;;;;5075008;28;20024;-77
2020/12/18 06:02:16;;;;;;;7.65;2.90;;;5.90;92.70;;;;;;5093210;28;20095;-77
2020/12/18 06:04:43;;;;;;;10.73;3.10;;;5.90;92.70;;;;;;5075165;28;20027;-77
2020/12/18 06:07:09;;;;;;;10.90;3.05;;;5.90;92.70;;;;;;5058053;28;20063;-77
2020/12/18 06:09:35;;;;;;;10.32;3.10;;;5.90;92.70;;;;;;5093170;28;20047;-76
2020/12/18 06:12:14;;;;;;;5.65;2.90;;;5.90;92.70;;;;;;5075102;28;20025;-77
2020/12/18 06:14:41;;;;;;;6.47;2.90;;;5.90;92.70;;;;;;5074668;28;20024;-77
2020/12/18 06:17:08;;;;;;;6.72;2.72;;;6.00;92.70;;;;;;5088900;28;20115;-77
2020/12/18 06:19:40;;;;;;;8.80;2.78;;;6.00;92.70;;;;;;5129360;28;20106;-77
2020/12/18 06:22:08;;;;;;;7.88;3.20;;;6.00;92.70;;;;;;5075787;28;20503;-77
2020/12/18 06:24:39;;;;;;;11.20;2.80;;;6.00;92.70;;;;;;5097165;28;20035;-77
2020/12/18 06:27:07;;;;;;;7.45;2.70;;;6.00;92.70;;;;;;5056353;28;20053;-77
2020/12/18 06:29:33;;;;;;;7.03;2.53;;;6.00;92.70;;;;;;5090461;28;20476;-77
2020/12/18 06:32:28;;;;;;;7.53;2.40;;;5.90;93.00;;;;;;5062230;28;20032;-77
2020/12/18 06:34:55;;;;;;;5.57;2.50;;;6.00;92.80;;;;;;5070449;28;20034;-77
2020/12/18 06:37:31;;;;;;;11.63;2.80;;;6.00;92.70;;;;;;5096602;28;20016;-77
2020/12/18 06:39:58;;;;;;;6.55;2.00;;;6.00;92.80;;;;;;5078163;28;20028;-77
2020/12/18 06:42:26;;;;;;;7.72;2.67;;;5.90;92.80;;;;;;5072531;28;20028;-77
2020/12/18 06:44:54;;;;;;;6.93;2.40;;;5.90;92.70;;;;;;5096544;28;20020;-76
2020/12/18 06:47:21;;;;;;;6.82;2.20;;;5.90;92.70;;;;;;5078170;28;20028;-77
2020/12/18 06:49:58;;;;;;;8.55;2.10;;;5.90;92.80;;;;;;5077865;28;20032;-76
2020/12/18 06:52:58;;;;;;;7.63;2.33;;;5.90;92.80;;;;;;5096207;28;20020;-77
2020/12/18 06:55:27;;;;;;;3.97;1.85;;;5.90;92.80;;;;;;5076052;28;20020;-76
2020/12/18 06:58:08;;;;;;;5.72;2.20;;;6.00;92.80;;;;;;5064939;28;20036;-76
2020/12/18 07:00:41;;;;;;;5.65;2.35;;;6.00;92.80;;;;;;5077957;28;20021;-76
2020/12/18 07:03:07;;;;;;;7.05;2.10;;;6.00;92.80;;;;;;5090111;28;20024;-76
2020/12/18 07:05:32;;;;;;;7.97;2.55;;;6.00;92.70;;;;;;5077621;28;20050;-77
2020/12/18 07:08:19;;;;;;;7.38;2.17;;;6.00;92.70;;;;;;5078050;28;20103;-76
2020/12/18 07:10:46;;;;;;;4.75;2.20;;;6.00;92.70;;;;;;5095573;28;20117;-75
2020/12/18 07:13:19;;;;;;;6.50;1.90;;;6.00;92.80;;;;;;5077520;28;20076;-75
2020/12/18 07:15:48;;;;;;;5.78;2.00;;;6.00;92.80;;;;;;5061107;28;20028;-77
2020/12/18 07:18:24;;;;;;;;;;;6.00;92.80;;;;;;5078267;28;20064;-76
2020/12/18 07:20:53;;;;;;;13.68;2.35;;;6.00;92.70;;;;;;5095489;28;19908;-76
2020/12/18 07:23:20;;;;;;;8.13;2.30;;;6.00;92.80;;;;;;5095915;28;20031;-77
2020/12/18 07:25:46;;;;;;;8.85;2.15;;;6.10;93.10;;;;;;5092818;28;20081;-77
2020/12/18 07:28:12;;;;;;;5.43;2.08;;;6.10;92.80;;;;;;5095804;28;20415;-77
2020/12/18 07:30:40;;;;;;;6.80;1.88;;;6.10;92.80;;;;;;5076079;28;20116;-77
2020/12/18 07:33:06;;;;;;;7.07;2.00;;;6.10;92.80;;;;;;5070207;28;20025;-76
2020/12/18 07:35:43;;;;;;;5.90;1.95;;;6.10;92.80;;;;;;5074424;28;20020;-75
2020/12/18 07:38:22;;;;;;;5.45;2.67;;;6.10;92.80;;;;;;5097822;28;20060;-75
2020/12/18 07:40:51;;;;;;;4.53;2.13;;;6.10;92.80;;;;;;5110555;28;20028;-75
2020/12/18 07:43:19;;;;;;;3.83;2.13;;;6.10;92.80;;;;;;5095729;28;20032;-75
2020/12/18 07:45:50;;;;;;;8.13;2.00;;;6.10;92.80;;;;;;5095085;28;20035;-75
2020/12/18 07:48:19;;;;;;;5.82;2.13;;;6.10;92.80;;;;;;5095087;28;20476;-76
2020/12/18 07:51:04;;;;;;;6.85;2.00;;;6.10;92.80;;;;;;5094895;28;20365;-75
2020/12/18 07:53:31;;;;;;;4.22;2.20;;;6.10;92.80;;;;;;5095129;28;20028;-75
2020/12/18 07:56:04;;;;;;;6.40;2.03;;;6.10;92.80;;;;;;5089706;28;20068;-75
2020/12/18 07:58:31;;;;;;;3.95;1.98;;;6.10;92.80;;;;;;5094978;28;20338;-75
2020/12/18 08:01:05;;;;;;;5.00;1.90;;;6.10;92.80;;;;;;5094945;28;20020;-77
2020/12/18 08:03:31;;;;;;;5.88;1.80;;;6.20;93.10;;;;;;5075189;28;20373;-77
2020/12/18 08:05:57;;;;;;;6.13;1.98;;;6.10;92.80;;;;;;5045403;28;20032;-77
2020/12/18 08:08:24;;;;;;;6.13;2.38;;;6.20;92.80;;;;;;5060255;28;20491;-77
2020/12/18 08:10:52;;;;;;;3.05;1.80;;;6.20;92.80;;;;;;5076440;28;20060;-77
2020/12/18 08:13:26;;;;;;;6.00;2.00;;;6.20;92.70;;;;;;5044037;28;20108;-76
2020/12/18 08:16:12;;;;;;;4.50;2.05;;;6.20;92.70;;;;;;5077015;28;20024;-76
2020/12/18 08:18:42;;;;;;;4.30;1.95;;;6.30;92.80;;;;;;5095025;28;20030;-75
2020/12/18 08:21:08;;;;;;;8.65;2.20;;;6.30;92.70;;;;;;5072921;28;20032;-74
2020/12/18 08:23:36;;;;;;;10.98;2.83;;;6.30;92.70;;;;;;5070442;28;20041;-75
2020/12/18 08:26:04;;;;;;;8.07;2.50;;;6.50;92.80;;;;;;5085342;28;20051;-75
2020/12/18 08:28:31;;;;;;;8.13;2.53;;;6.60;92.80;;;;;;5077011;28;20024;-74
2020/12/18 08:31:05;;;;;;;8.13;2.55;;;6.70;92.70;;;;;;5075893;28;20383;-74
2020/12/18 08:33:34;;;;;;;6.72;2.20;;;6.80;92.60;;;;;;5071027;28;20024;-74
2020/12/18 08:36:01;;;;;;;9.90;2.33;;;6.90;92.50;;;;;;5071250;28;20051;-74
2020/12/18 08:38:26;;;;;;;13.10;2.40;;;6.90;92.40;;;;;;5064947;28;20020;-74
2020/12/18 08:40:56;;;;;;;6.07;2.13;;;6.90;92.40;;;;;;5076276;28;20107;-74
2020/12/18 08:43:22;;;;;;;7.18;2.72;;;7.00;92.40;;;;;;5091114;28;20085;-74
2020/12/18 08:45:47;;;;;;;7.85;2.42;;;7.00;92.30;;;;;;5074195;28;20032;-74
2020/12/18 08:48:19;;;;;;;6.55;2.40;;;6.90;92.30;;;;;;5073181;28;20031;-74
2020/12/18 08:50:45;;;;;;;5.63;2.60;;;6.90;92.30;;;;;;5090424;28;20368;-74
2020/12/18 08:53:13;;;;;;;8.93;2.45;;;6.90;92.30;;;;;;5058327;28;20400;-74
2020/12/18 08:55:40;;;;;;;5.88;2.08;;;7.00;92.30;;;;;;5092338;28;20028;-75
2020/12/18 08:58:10;;;;;;;10.30;2.20;;;6.90;92.20;;;;;;5041583;28;20381;-74
2020/12/18 09:00:36;;;;;;;3.65;2.17;;;7.00;92.30;;;;;;5074940;28;20111;-74
2020/12/18 09:03:03;;;;;;;7.45;2.45;;;7.00;92.20;;;;;;5058093;28;20035;-74
2020/12/18 09:05:36;;;;;;;10.68;2.63;;;7.00;92.20;;;;;;5088919;28;20058;-74
2020/12/18 09:08:07;;;;;;;8.73;2.72;;;6.90;92.20;;;;;;5071402;28;20032;-74
2020/12/18 09:10:35;;;;;;;9.30;2.53;;;6.90;92.20;;;;;;5087090;28;20078;-74
2020/12/18 09:13:16;;;;;;;7.40;2.45;;;6.90;92.20;;;;;;5090269;28;20025;-74
2020/12/18 09:15:43;;;;;;;6.05;1.90;;;6.90;92.30;;;;;;5092566;28;20477;-74
2020/12/18 09:18:11;;;;;;;5.50;2.50;;;6.90;92.30;;;;;;5057781;28;20036;-74
2020/12/18 09:20:44;;;;;;;8.63;2.40;;;6.90;92.20;;;;;;5065389;28;20500;-74
2020/12/18 09:23:16;;;;;;;7.38;2.28;;;7.00;92.20;;;;;;5056330;28;20037;-74
2020/12/18 09:25:47;;;;;;;4.57;2.30;;;7.10;92.20;;;;;;5091179;28;20481;-74
2020/12/18 09:28:17;;;;;;;8.48;2.70;;;7.10;92.10;;;;;;5069276;28;20028;-74
2020/12/18 09:30:57;;;;;;;9.52;2.75;;;7.10;92.20;;;;;;5093167;28;20027;-75
2020/12/18 09:33:25;;;;;;;6.25;2.08;;;7.20;92.10;;;;;;5057326;28;20052;-74
2020/12/18 09:35:56;;;;;;;5.70;2.20;;;7.30;92.00;;;;;;5067266;28;20032;-74
2020/12/18 09:38:27;;;;;;;6.90;2.42;;;7.30;92.00;;;;;;5071606;28;20830;-74
2020/12/18 09:40:54;;;;;;;8.48;2.80;;;7.40;92.00;;;;;;5071630;28;20043;-74
2020/12/18 09:43:20;;;;;;;5.85;2.45;;;7.40;91.90;;;;;;5093614;28;20034;-75
2020/12/18 09:45:47;;;;;;;8.45;2.60;;;7.50;91.90;;;;;;5086951;28;20035;-75
2020/12/18 09:48:13;;;;;;;6.78;2.63;;;7.60;91.80;;;;;;5087324;28;20028;-75
2020/12/18 09:50:38;;;;;;;9.18;2.58;;;7.60;91.80;;;;;;5075203;28;20029;-75
2020/12/18 09:53:04;;;;;;;6.20;2.75;;;7.70;91.80;;;;;;5046364;28;20075;-75
2020/12/18 09:55:31;;;;;;;7.97;2.85;;;7.70;91.70;;;;;;5073274;28;20025;-75
2020/12/18 09:57:56;;;;;;;7.07;2.65;;;7.70;91.70;;;;;;5076676;28;20044;-75
2020/12/18 10:00:22;;;;;;;8.18;2.78;;;7.80;91.80;;;;;;5095824;28;20062;-75
2020/12/18 10:02:48;;;;;;;7.93;2.30;;;7.80;91.70;;;;;;5062342;28;20511;-75
2020/12/18 10:05:13;;;;;;;6.90;2.72;;;7.90;91.70;;;;;;5058830;28;20043;-75
2020/12/18 10:07:39;;;;;;;7.10;2.55;;;7.90;91.70;;;;;;5092715;28;20556;-75
2020/12/18 10:10:05;;;;;;;8.13;2.33;;;8.00;91.60;;;;;;5092479;28;20121;-75
2020/12/18 10:12:31;;;;;;;8.00;2.30;;;8.10;91.60;;;;;;5077045;28;20166;-75
2020/12/18 10:14:56;;;;;;;7.80;2.63;;;8.10;91.60;;;;;;5076468;28;20032;-75
2020/12/18 10:17:22;;;;;;;6.85;2.70;;;8.10;91.50;;;;;;5096286;28;20036;-75
2020/12/18 10:19:48;;;;;;;6.13;2.50;;;8.20;91.50;;;;;;5077941;28;20024;-75
2020/12/18 10:22:14;;;;;;;8.02;3.13;;;8.20;91.50;;;;;;5078331;28;20042;-75
2020/12/18 10:24:40;;;;;;;6.75;2.33;;;8.30;91.40;;;;;;5061972;28;20028;-75
2020/12/18 10:27:05;;;;;;;7.18;2.60;;;8.40;91.40;;;;;;5077442;28;20020;-75
2020/12/18 10:29:31;;;;;;;6.22;2.30;;;8.40;91.40;;;;;;5086938;28;20111;-75
2020/12/18 10:31:57;;;;;;;8.30;2.25;;;8.50;91.30;;;;;;5061221;28;20032;-75
2020/12/18 10:34:24;;;;;;;10.25;2.80;;;8.50;91.30;;;;;;5108662;28;20699;-75
2020/12/18 10:36:54;;;;;;;5.60;2.13;;;8.50;91.20;;;;;;5060986;28;20037;-75
2020/12/18 10:39:22;;;;;;;8.75;2.50;;;8.60;91.30;;;;;;5097504;28;20055;-75
2020/12/18 10:41:48;;;;;;;9.35;2.30;;;8.60;91.20;;;;;;5101206;28;20034;-75
2020/12/18 10:44:13;;;;;;;6.20;2.65;;;8.70;91.20;;;;;;5077638;28;20587;-76
2020/12/18 10:46:40;;;;;;;4.85;2.28;;;8.80;91.40;;;;;;5077752;28;20035;-75
2020/12/18 10:49:07;;;;;;;7.72;2.55;;;8.80;91.10;;;;;;5077929;28;20111;-75
2020/12/18 10:51:32;;;;;;;7.55;2.50;;;8.90;91.10;;;;;;5096186;28;20028;-75
2020/12/18 10:53:58;;;;;;;6.97;2.55;;;9.00;91.10;;;;;;5096176;28;20020;-75
2020/12/18 10:56:24;;;;;;;6.43;2.40;;;8.90;91.00;;;;;;5095903;28;20063;-74
2020/12/18 10:58:49;;;;;;;7.05;2.50;;;9.00;91.00;;;;;;5077964;28;20031;-75
2020/12/18 11:01:18;;;;;;;8.15;2.50;;;9.10;91.00;;;;;;5078057;28;20055;-75
2020/12/18 11:03:44;;;;;;;5.82;2.15;;;9.20;91.00;;;;;;5061332;28;20032;-74
2020/12/18 11:06:10;;;;;;;7.57;1.98;;;9.20;90.90;;;;;;5096016;28;20481;-74
2020/12/18 11:08:36;;;;;;;8.10;2.40;;;9.30;90.90;;;;;;5095310;28;20035;-74
2020/12/18 11:11:01;;;;;;;5.25;1.90;;;9.40;90.80;;;;;;5077180;28;20477;-75
2020/12/18 11:13:27;;;;;;;7.93;2.20;;;9.50;90.80;;;;;;5095750;28;20058;-75
2020/12/18 11:15:53;;;;;;;7.55;1.90;;;9.50;90.70;;;;;;5096015;28;20074;-75
2020/12/18 11:18:18;;;;;;;4.95;1.80;;;9.60;90.70;;;;;;5097805;28;20020;-75
2020/12/18 11:20:44;;;;;;;8.27;1.95;;;9.60;90.70;;;;;;5097795;28;20024;-75
2020/12/18 11:23:09;;;;;;;7.55;2.00;;;9.60;90.60;;;;;;5097947;28;20040;-75
2020/12/18 11:25:35;;;;;;;7.93;1.60;;;9.70;90.50;;;;;;5097404;28;20043;-75
2020/12/18 11:28:01;;;;;;;7.82;1.70;;;9.80;90.40;;;;;;5077486;28;20024;-75
2020/12/18 11:30:26;;;;;;;6.45;1.52;;;9.80;90.30;;;;;;5077749;28;20468;-75
2020/12/18 11:32:52;;;;;;;4.97;1.58;;;9.90;90.20;;;;;;5077900;28;20490;-85
2020/12/18 11:35:17;;;;;;;3.92;1.40;;;9.90;90.10;;;;;;5061280;28;20153;-85
2020/12/18 11:37:43;;;;;;;5.55;1.80;;;10.00;90.00;;;;;;5077860;28;20039;-86
2020/12/18 11:40:09;;;;;;;7.60;1.88;;;10.10;89.80;;;;;;5061282;28;20024;-85
2020/12/18 11:42:35;;;;;;;11.10;1.92;;;10.10;89.60;;;;;;5061644;28;20076;-85
2020/12/18 11:45:02;;;;;;;6.63;1.60;;;10.50;88.40;;;;;;5061359;28;20476;-85
2020/12/18 11:47:28;;;;;;;9.00;1.42;;;11.30;84.30;;;;;;5095859;28;20461;-86
2020/12/18 11:49:54;;;;;;;5.53;1.70;;;12.10;80.50;;;;;;5077654;28;20028;-86
2020/12/18 11:52:20;;;;;;;5.88;1.17;;;12.50;77.90;;;;;;5070647;28;20024;-85
2020/12/18 11:54:45;;;;;;;9.82;1.55;;;12.70;77.20;;;;;;5094730;28;20410;-75
2020/12/18 11:57:11;;;;;;;6.65;1.27;;;12.70;77.60;;;;;;5078803;28;20040;-74
2020/12/18 11:59:36;;;;;;;5.38;1.50;;;13.00;75.80;;;;;;5064270;28;20502;-74
2020/12/18 12:02:03;;;;;;;2.42;1.00;;;13.30;74.40;;;;;;5078423;28;20039;-74
2020/12/18 12:04:29;;;;;;;3.67;1.08;;;13.50;73.80;;;;;;5072972;28;20546;-74
2020/12/18 12:06:55;;;;;;;6.00;1.30;;;13.70;73.20;;;;;;5076345;28;20028;-74
2020/12/18 12:09:21;;;;;;;4.30;0.98;;;14.00;71.90;;;;;;5099657;28;20036;-74
2020/12/18 12:11:47;;;;;;;5.30;1.27;;;14.10;71.00;;;;;;5068790;28;20110;-75
2020/12/18 12:14:13;;;;;;;4.65;1.10;;;14.20;70.50;;;;;;5092705;28;20074;-74
2020/12/18 12:16:39;;;;;;;7.03;1.33;;;14.20;70.80;;;;;;5076212;28;20511;-75
2020/12/18 12:19:05;;;;;;;3.00;1.08;;;14.30;70.20;;;;;;5103960;28;20031;-74
2020/12/18 12:21:32;;;;;;;3.97;1.25;;;14.50;69.70;;;;;;5114252;28;20018;-74
2020/12/18 12:23:58;;;;;;;3.63;0.90;;;14.80;68.50;;;;;;5097866;28;20024;-76
2020/12/18 12:26:23;;;;;;;5.07;0.90;;;15.00;67.70;;;;;;5076303;28;20074;-75
2020/12/18 12:28:50;;;;;;;5.38;1.13;;;15.20;67.30;;;;;;5094254;28;20072;-75
2020/12/18 12:31:15;;;;;;;1.20;0.70;;;15.20;67.40;;;;;;5076242;28;20132;-75
2020/12/18 12:33:41;;;;;;;2.28;0.90;;;15.10;67.90;;;;;;5059430;28;20032;-76
2020/12/18 12:36:06;;;;;;;5.78;1.00;;;15.20;67.00;;;;;;5059594;28;20051;-75
2020/12/18 12:38:32;;;;;;;4.38;0.88;;;15.10;67.40;;;;;;5094050;28;20078;-75
2020/12/18 12:40:58;;;;;;;3.88;1.00;;;14.70;69.20;;;;;;5094404;28;20039;-75
2020/12/18 12:43:23;;;;;;;3.33;0.88;;;14.50;70.60;;;;;;5075904;28;20119;-75
2020/12/18 12:45:49;;;;;;;4.10;0.93;;;14.30;70.30;;;;;;5075670;28;20028;-75
2020/12/18 12:48:14;;;;;;;5.03;1.00;;;13.90;71.80;;;;;;5076236;28;20032;-75
2020/12/18 12:50:42;;;;;;;1.83;0.63;;;13.60;72.20;;;;;;5094160;28;20032;-75
2020/12/18 12:53:07;;;;;;;3.17;1.13;;;13.70;71.70;;;;;;5075650;28;20028;-76
2020/12/18 12:55:33;;;;;;;6.25;0.95;;;13.80;70.40;;;;;;5075505;28;20036;-75